sensor_id;sensor_type;location;lat;lon;timestamp;temperature;humidity
77218;DHT22;66214;51.302;17.068;2023-01-29T00:00:10;-1.14;81.22
77218;DHT22;66214;51.302;17.068;2023-01-29T00:03:19;-1.17;81.19
77218;DHT22;66214;51.302;17.068;2023-01-29T00:05:47;-1.20;81.14
77218;DHT22;66214;51.302;17.068;2023-01-29T00:08:15;-1.23;81.06
77218;DHT22;66214;51.302;17.068;2023-01-29T00:10:43;-1.25;81.05
77218;DHT22;66214;51.302;17.068;2023-01-29T00:13:11;-1.29;81.15
77218;DHT22;66214;51.302;17.068;2023-01-29T00:15:39;-1.30;81.16
77218;DHT22;66214;51.302;17.068;2023-01-29T00:18:06;-1.32;81.20
77218;DHT22;66214;51.302;17.068;2023-01-29T00:20:35;-1.34;81.19
77218;DHT22;66214;51.302;17.068;2023-01-29T00:23:02;-1.33;81.50
77218;DHT22;66214;51.302;17.068;2023-01-29T00:25:30;-1.31;81.80
77218;DHT22;66214;51.302;17.068;2023-01-29T00:27:58;-1.30;82.03
77218;DHT22;66214;51.302;17.068;2023-01-29T00:30:26;-1.27;82.26
77218;DHT22;66214;51.302;17.068;2023-01-29T00:36:26;-1.17;82.55
77218;DHT22;66214;51.302;17.068;2023-01-29T00:38:55;-1.16;82.29
77218;DHT22;66214;51.302;17.068;2023-01-29T00:41:26;-1.17;82.03
77218;DHT22;66214;51.302;17.068;2023-01-29T00:44:15;-1.19;81.84
77218;DHT22;66214;51.302;17.068;2023-01-29T00:47:03;-1.21;81.67
77218;DHT22;66214;51.302;17.068;2023-01-29T00:49:52;-1.25;81.58
77218;DHT22;66214;51.302;17.068;2023-01-29T00:52:20;-1.29;81.58
77218;DHT22;66214;51.302;17.068;2023-01-29T00:54:52;-1.36;81.71
77218;DHT22;66214;51.302;17.068;2023-01-29T00:57:26;-1.41;81.89
77218;DHT22;66214;51.302;17.068;2023-01-29T00:59:56;-1.48;82.04
77218;DHT22;66214;51.302;17.068;2023-01-29T01:02:25;-1.48;82.22
77218;DHT22;66214;51.302;17.068;2023-01-29T01:05:13;-1.51;82.55
77218;DHT22;66214;51.302;17.068;2023-01-29T01:07:46;-1.52;82.66
77218;DHT22;66214;51.302;17.068;2023-01-29T01:10:18;-1.56;82.74
77218;DHT22;66214;51.302;17.068;2023-01-29T01:13:01;-1.59;82.82
77218;DHT22;66214;51.302;17.068;2023-01-29T01:15:36;-1.60;82.78
77218;DHT22;66214;51.302;17.068;2023-01-29T01:18:06;-1.57;82.64
77218;DHT22;66214;51.302;17.068;2023-01-29T01:20:34;-1.55;82.39
77218;DHT22;66214;51.302;17.068;2023-01-29T01:23:02;-1.53;82.23
77218;DHT22;66214;51.302;17.068;2023-01-29T01:25:31;-1.53;82.07
77218;DHT22;66214;51.302;17.068;2023-01-29T01:28:00;-1.53;81.84
77218;DHT22;66214;51.302;17.068;2023-01-29T01:30:28;-1.55;81.82
77218;DHT22;66214;51.302;17.068;2023-01-29T01:32:56;-1.57;81.81
77218;DHT22;66214;51.302;17.068;2023-01-29T01:35:24;-1.62;81.91
77218;DHT22;66214;51.302;17.068;2023-01-29T01:37:51;-1.68;81.99
77218;DHT22;66214;51.302;17.068;2023-01-29T01:40:20;-1.75;82.07
77218;DHT22;66214;51.302;17.068;2023-01-29T01:42:51;-1.81;82.22
77218;DHT22;66214;51.302;17.068;2023-01-29T01:48:00;-1.89;82.50
77218;DHT22;66214;51.302;17.068;2023-01-29T01:53:22;-1.95;82.87
77218;DHT22;66214;51.302;17.068;2023-01-29T01:55:58;-1.96;82.99
77218;DHT22;66214;51.302;17.068;2023-01-29T01:58:31;-1.95;83.13
77218;DHT22;66214;51.302;17.068;2023-01-29T02:01:10;-1.89;83.15
77218;DHT22;66214;51.302;17.068;2023-01-29T02:03:43;-1.86;83.07
77218;DHT22;66214;51.302;17.068;2023-01-29T02:06:44;-1.81;83.00
77218;DHT22;66214;51.302;17.068;2023-01-29T02:09:31;-1.75;83.05
77218;DHT22;66214;51.302;17.068;2023-01-29T02:12:12;-1.70;83.09
77218;DHT22;66214;51.302;17.068;2023-01-29T02:18:18;-1.59;83.18
77218;DHT22;66214;51.302;17.068;2023-01-29T02:20:55;-1.57;83.02
77218;DHT22;66214;51.302;17.068;2023-01-29T02:30:20;-1.53;82.88
77218;DHT22;66214;51.302;17.068;2023-01-29T02:32:58;-1.53;82.73
77218;DHT22;66214;51.302;17.068;2023-01-29T02:38:29;-1.47;82.82
77218;DHT22;66214;51.302;17.068;2023-01-29T02:47:09;-1.34;82.50
77218;DHT22;66214;51.302;17.068;2023-01-29T02:52:32;-1.34;82.33
77218;DHT22;66214;51.302;17.068;2023-01-29T02:55:11;-1.34;82.38
77218;DHT22;66214;51.302;17.068;2023-01-29T02:57:48;-1.33;82.31
77218;DHT22;66214;51.302;17.068;2023-01-29T03:00:23;-1.33;82.23
77218;DHT22;66214;51.302;17.068;2023-01-29T03:03:07;-1.36;82.15
77218;DHT22;66214;51.302;17.068;2023-01-29T03:05:58;-1.39;82.18
77218;DHT22;66214;51.302;17.068;2023-01-29T03:08:46;-1.40;82.19
77218;DHT22;66214;51.302;17.068;2023-01-29T03:11:26;-1.43;82.12
77218;DHT22;66214;51.302;17.068;2023-01-29T03:14:04;-1.44;82.17
77218;DHT22;66214;51.302;17.068;2023-01-29T03:16:49;-1.45;82.19
77218;DHT22;66214;51.302;17.068;2023-01-29T03:19:19;-1.45;82.26
77218;DHT22;66214;51.302;17.068;2023-01-29T03:21:58;-1.41;82.37
77218;DHT22;66214;51.302;17.068;2023-01-29T03:27:47;-1.28;82.80
77218;DHT22;66214;51.302;17.068;2023-01-29T03:30:40;-1.22;82.84
77218;DHT22;66214;51.302;17.068;2023-01-29T03:33:35;-1.16;82.68
77218;DHT22;66214;51.302;17.068;2023-01-29T03:36:16;-1.13;82.45
77218;DHT22;66214;51.302;17.068;2023-01-29T03:38:50;-1.12;82.10
77218;DHT22;66214;51.302;17.068;2023-01-29T03:46:54;-1.22;81.81
77218;DHT22;66214;51.302;17.068;2023-01-29T03:49:38;-1.25;81.69
77218;DHT22;66214;51.302;17.068;2023-01-29T03:55:32;-1.29;81.67
77218;DHT22;66214;51.302;17.068;2023-01-29T04:01:09;-1.33;81.44
77218;DHT22;66214;51.302;17.068;2023-01-29T04:06:54;-1.36;81.44
77218;DHT22;66214;51.302;17.068;2023-01-29T04:09:29;-1.37;81.46
77218;DHT22;66214;51.302;17.068;2023-01-29T04:12:04;-1.37;81.41
77218;DHT22;66214;51.302;17.068;2023-01-29T04:14:38;-1.36;81.60
77218;DHT22;66214;51.302;17.068;2023-01-29T04:17:08;-1.33;81.79
77218;DHT22;66214;51.302;17.068;2023-01-29T04:19:42;-1.31;81.98
77218;DHT22;66214;51.302;17.068;2023-01-29T04:22:18;-1.28;82.11
77218;DHT22;66214;51.302;17.068;2023-01-29T04:24:54;-1.25;82.19
77218;DHT22;66214;51.302;17.068;2023-01-29T04:27:32;-1.22;82.04
77218;DHT22;66214;51.302;17.068;2023-01-29T04:30:37;-1.20;81.76
77218;DHT22;66214;51.302;17.068;2023-01-29T04:44:43;-1.28;80.74
77218;DHT22;66214;51.302;17.068;2023-01-29T04:53:03;-1.40;80.78
77218;DHT22;66214;51.302;17.068;2023-01-29T04:55:48;-1.43;80.76
77218;DHT22;66214;51.302;17.068;2023-01-29T04:58:38;-1.46;80.69
77218;DHT22;66214;51.302;17.068;2023-01-29T05:01:12;-1.48;80.63
77218;DHT22;66214;51.302;17.068;2023-01-29T05:03:43;-1.49;80.72
77218;DHT22;66214;51.302;17.068;2023-01-29T05:06:16;-1.51;80.65
77218;DHT22;66214;51.302;17.068;2023-01-29T05:08:46;-1.51;80.68
77218;DHT22;66214;51.302;17.068;2023-01-29T05:11:16;-1.49;80.89
77218;DHT22;66214;51.302;17.068;2023-01-29T05:13:45;-1.46;81.19
77218;DHT22;66214;51.302;17.068;2023-01-29T05:16:19;-1.42;81.44
77218;DHT22;66214;51.302;17.068;2023-01-29T05:18:55;-1.38;81.58
77218;DHT22;66214;51.302;17.068;2023-01-29T05:21:22;-1.35;81.63
77218;DHT22;66214;51.302;17.068;2023-01-29T05:24:11;-1.33;81.34
77218;DHT22;66214;51.302;17.068;2023-01-29T05:26:51;-1.33;80.97
77218;DHT22;66214;51.302;17.068;2023-01-29T05:29:40;-1.36;80.72
77218;DHT22;66214;51.302;17.068;2023-01-29T05:32:13;-1.41;80.43
77218;DHT22;66214;51.302;17.068;2023-01-29T05:38:19;-1.59;80.48
77218;DHT22;66214;51.302;17.068;2023-01-29T05:40:48;-1.67;80.39
77218;DHT22;66214;51.302;17.068;2023-01-29T05:45:51;-1.86;80.20
77218;DHT22;66214;51.302;17.068;2023-01-29T05:48:24;-1.95;80.19
77218;DHT22;66214;51.302;17.068;2023-01-29T05:51:01;-2.03;80.30
77218;DHT22;66214;51.302;17.068;2023-01-29T05:53:31;-2.12;80.27
77218;DHT22;66214;51.302;17.068;2023-01-29T05:56:00;-2.20;80.33
77218;DHT22;66214;51.302;17.068;2023-01-29T05:58:30;-2.27;80.40
77218;DHT22;66214;51.302;17.068;2023-01-29T06:01:13;-2.34;80.46
77218;DHT22;66214;51.302;17.068;2023-01-29T06:03:46;-2.38;80.58
77218;DHT22;66214;51.302;17.068;2023-01-29T06:06:14;-2.39;80.81
77218;DHT22;66214;51.302;17.068;2023-01-29T06:08:43;-2.39;81.17
77218;DHT22;66214;51.302;17.068;2023-01-29T06:11:11;-2.39;81.45
77218;DHT22;66214;51.302;17.068;2023-01-29T06:13:40;-2.38;81.68
77218;DHT22;66214;51.302;17.068;2023-01-29T06:16:09;-2.36;81.71
77218;DHT22;66214;51.302;17.068;2023-01-29T06:18:39;-2.37;81.56
77218;DHT22;66214;51.302;17.068;2023-01-29T06:21:09;-2.37;81.46
77218;DHT22;66214;51.302;17.068;2023-01-29T06:23:40;-2.38;81.27
77218;DHT22;66214;51.302;17.068;2023-01-29T06:26:10;-2.40;81.15
77218;DHT22;66214;51.302;17.068;2023-01-29T06:32:17;-2.44;81.31
77218;DHT22;66214;51.302;17.068;2023-01-29T06:34:45;-2.44;81.39
77218;DHT22;66214;51.302;17.068;2023-01-29T06:37:13;-2.44;81.30
77218;DHT22;66214;51.302;17.068;2023-01-29T06:39:40;-2.41;81.37
77218;DHT22;66214;51.302;17.068;2023-01-29T06:42:08;-2.38;81.37
77218;DHT22;66214;51.302;17.068;2023-01-29T06:44:37;-2.36;81.31
77218;DHT22;66214;51.302;17.068;2023-01-29T06:47:05;-2.35;81.22
77218;DHT22;66214;51.302;17.068;2023-01-29T06:49:34;-2.33;81.24
77218;DHT22;66214;51.302;17.068;2023-01-29T06:52:02;-2.30;81.31
77218;DHT22;66214;51.302;17.068;2023-01-29T06:54:30;-2.25;81.50
77218;DHT22;66214;51.302;17.068;2023-01-29T06:56:58;-2.16;81.68
77218;DHT22;66214;51.302;17.068;2023-01-29T06:59:26;-2.07;81.86
77218;DHT22;66214;51.302;17.068;2023-01-29T07:01:53;-1.98;81.87
77218;DHT22;66214;51.302;17.068;2023-01-29T07:07:43;-1.78;81.93
77218;DHT22;66214;51.302;17.068;2023-01-29T07:10:10;-1.72;81.51
77218;DHT22;66214;51.302;17.068;2023-01-29T07:12:38;-1.67;81.29
77218;DHT22;66214;51.302;17.068;2023-01-29T07:15:06;-1.63;81.16
77218;DHT22;66214;51.302;17.068;2023-01-29T07:17:35;-1.60;80.99
77218;DHT22;66214;51.302;17.068;2023-01-29T07:20:03;-1.58;80.74
77218;DHT22;66214;51.302;17.068;2023-01-29T07:22:32;-1.57;80.70
77218;DHT22;66214;51.302;17.068;2023-01-29T07:25:00;-1.56;80.62
77218;DHT22;66214;51.302;17.068;2023-01-29T07:27:28;-1.54;80.58
77218;DHT22;66214;51.302;17.068;2023-01-29T07:29:55;-1.54;80.55
77218;DHT22;66214;51.302;17.068;2023-01-29T07:32:23;-1.51;80.34
77218;DHT22;66214;51.302;17.068;2023-01-29T07:34:51;-1.51;80.14
77218;DHT22;66214;51.302;17.068;2023-01-29T07:37:19;-1.48;80.39
77218;DHT22;66214;51.302;17.068;2023-01-29T07:39:46;-1.41;80.65
77218;DHT22;66214;51.302;17.068;2023-01-29T07:42:14;-1.33;80.96
77218;DHT22;66214;51.302;17.068;2023-01-29T07:44:42;-1.25;80.83
77218;DHT22;66214;51.302;17.068;2023-01-29T07:50:21;-1.16;80.55
77218;DHT22;66214;51.302;17.068;2023-01-29T07:52:51;-1.17;79.99
77218;DHT22;66214;51.302;17.068;2023-01-29T07:55:21;-1.13;80.02
77218;DHT22;66214;51.302;17.068;2023-01-29T07:57:56;-1.06;79.91
77218;DHT22;66214;51.302;17.068;2023-01-29T08:00:26;-1.01;79.72
77218;DHT22;66214;51.302;17.068;2023-01-29T08:03:02;-0.97;79.58
77218;DHT22;66214;51.302;17.068;2023-01-29T08:05:33;-0.93;79.51
77218;DHT22;66214;51.302;17.068;2023-01-29T08:08:01;-0.86;79.51
77218;DHT22;66214;51.302;17.068;2023-01-29T08:10:28;-0.79;79.45
77218;DHT22;66214;51.302;17.068;2023-01-29T08:12:58;-0.74;79.36
77218;DHT22;66214;51.302;17.068;2023-01-29T08:15:27;-0.68;78.97
77218;DHT22;66214;51.302;17.068;2023-01-29T08:17:56;-0.58;79.06
77218;DHT22;66214;51.302;17.068;2023-01-29T08:20:25;-0.50;79.32
77218;DHT22;66214;51.302;17.068;2023-01-29T08:22:57;-0.40;79.57
77218;DHT22;66214;51.302;17.068;2023-01-29T08:25:31;-0.29;79.79
77218;DHT22;66214;51.302;17.068;2023-01-29T08:27:59;-0.16;79.69
77218;DHT22;66214;51.302;17.068;2023-01-29T08:30:28;-0.09;78.89
77218;DHT22;66214;51.302;17.068;2023-01-29T08:32:58;-0.05;78.60
77218;DHT22;66214;51.302;17.068;2023-01-29T08:35:27;-0.05;78.15
77218;DHT22;66214;51.302;17.068;2023-01-29T08:37:59;-0.07;78.09
77218;DHT22;66214;51.302;17.068;2023-01-29T08:40:31;-0.08;77.72
77218;DHT22;66214;51.302;17.068;2023-01-29T08:43:01;-0.03;77.81
77218;DHT22;66214;51.302;17.068;2023-01-29T08:45:34;-0.05;77.51
77218;DHT22;66214;51.302;17.068;2023-01-29T08:48:11;-0.05;77.84
77218;DHT22;66214;51.302;17.068;2023-01-29T08:50:39;-0.06;77.71
77218;DHT22;66214;51.302;17.068;2023-01-29T08:53:07;-0.06;77.47
77218;DHT22;66214;51.302;17.068;2023-01-29T08:55:36;-0.10;77.37
77218;DHT22;66214;51.302;17.068;2023-01-29T08:58:08;-0.11;77.69
77218;DHT22;66214;51.302;17.068;2023-01-29T09:00:38;-0.09;77.65
77218;DHT22;66214;51.302;17.068;2023-01-29T09:03:06;-0.15;77.18
77218;DHT22;66214;51.302;17.068;2023-01-29T09:05:34;-0.14;77.44
77218;DHT22;66214;51.302;17.068;2023-01-29T09:08:04;-0.08;77.59
77218;DHT22;66214;51.302;17.068;2023-01-29T09:10:34;-0.03;77.18
77218;DHT22;66214;51.302;17.068;2023-01-29T09:13:02;0.06;77.48
77218;DHT22;66214;51.302;17.068;2023-01-29T09:15:31;0.13;77.20
77218;DHT22;66214;51.302;17.068;2023-01-29T09:18:01;0.21;76.69
77218;DHT22;66214;51.302;17.068;2023-01-29T09:20:31;0.29;76.64
77218;DHT22;66214;51.302;17.068;2023-01-29T09:23:04;0.41;76.35
77218;DHT22;66214;51.302;17.068;2023-01-29T09:25:34;0.55;76.21
77218;DHT22;66214;51.302;17.068;2023-01-29T09:28:03;0.74;76.47
77218;DHT22;66214;51.302;17.068;2023-01-29T17:47:54;0.63;82.87
77218;DHT22;66214;51.302;17.068;2023-01-29T17:50:22;0.60;82.82
77218;DHT22;66214;51.302;17.068;2023-01-29T17:52:55;0.56;82.60
77218;DHT22;66214;51.302;17.068;2023-01-29T17:55:22;0.56;82.61
77218;DHT22;66214;51.302;17.068;2023-01-29T17:57:50;0.57;82.80
77218;DHT22;66214;51.302;17.068;2023-01-29T18:00:19;0.58;82.87
77218;DHT22;66214;51.302;17.068;2023-01-29T18:02:49;0.60;82.99
77218;DHT22;66214;51.302;17.068;2023-01-29T18:05:18;0.62;83.00
77218;DHT22;66214;51.302;17.068;2023-01-29T18:07:46;0.64;82.75
77218;DHT22;66214;51.302;17.068;2023-01-29T18:10:15;0.65;82.66
77218;DHT22;66214;51.302;17.068;2023-01-29T18:12:46;0.65;82.49
77218;DHT22;66214;51.302;17.068;2023-01-29T18:15:14;0.65;82.36
77218;DHT22;66214;51.302;17.068;2023-01-29T18:17:42;0.64;82.27
77218;DHT22;66214;51.302;17.068;2023-01-29T18:20:18;0.63;82.24
77218;DHT22;66214;51.302;17.068;2023-01-29T18:22:51;0.62;82.40
77218;DHT22;66214;51.302;17.068;2023-01-29T18:25:20;0.61;82.34
77218;DHT22;66214;51.302;17.068;2023-01-29T18:27:48;0.61;82.52
77218;DHT22;66214;51.302;17.068;2023-01-29T18:30:16;0.63;82.70
77218;DHT22;66214;51.302;17.068;2023-01-29T18:32:44;0.64;82.85
77218;DHT22;66214;51.302;17.068;2023-01-29T18:35:13;0.68;83.00
77218;DHT22;66214;51.302;17.068;2023-01-29T18:37:42;0.70;82.95
77218;DHT22;66214;51.302;17.068;2023-01-29T18:40:10;0.72;82.70
77218;DHT22;66214;51.302;17.068;2023-01-29T18:42:40;0.72;82.38
77218;DHT22;66214;51.302;17.068;2023-01-29T18:45:08;0.71;82.11
77218;DHT22;66214;51.302;17.068;2023-01-29T18:47:37;0.70;81.99
77218;DHT22;66214;51.302;17.068;2023-01-29T18:50:05;0.70;81.84
77218;DHT22;66214;51.302;17.068;2023-01-29T18:52:36;0.68;81.82
77218;DHT22;66214;51.302;17.068;2023-01-29T18:55:04;0.67;81.73
77218;DHT22;66214;51.302;17.068;2023-01-29T18:57:33;0.65;81.69
77218;DHT22;66214;51.302;17.068;2023-01-29T19:00:01;0.64;81.65
77218;DHT22;66214;51.302;17.068;2023-01-29T19:02:30;0.66;81.83
77218;DHT22;66214;51.302;17.068;2023-01-29T19:04:59;0.68;82.04
77218;DHT22;66214;51.302;17.068;2023-01-29T19:07:26;0.71;82.20
77218;DHT22;66214;51.302;17.068;2023-01-29T19:09:54;0.73;82.14
77218;DHT22;66214;51.302;17.068;2023-01-29T19:12:23;0.77;82.21
77218;DHT22;66214;51.302;17.068;2023-01-29T19:14:50;0.75;81.95
77218;DHT22;66214;51.302;17.068;2023-01-29T19:17:18;0.76;81.90
77218;DHT22;66214;51.302;17.068;2023-01-29T19:19:46;0.78;81.72
77218;DHT22;66214;51.302;17.068;2023-01-29T19:22:15;0.78;81.54
77218;DHT22;66214;51.302;17.068;2023-01-29T19:24:44;0.79;81.45
77218;DHT22;66214;51.302;17.068;2023-01-29T19:27:12;0.78;81.41
77218;DHT22;66214;51.302;17.068;2023-01-29T19:29:41;0.79;81.27
77218;DHT22;66214;51.302;17.068;2023-01-29T19:32:09;0.77;81.24
77218;DHT22;66214;51.302;17.068;2023-01-29T19:34:38;0.76;81.16
77218;DHT22;66214;51.302;17.068;2023-01-29T19:37:06;0.74;81.09
77218;DHT22;66214;51.302;17.068;2023-01-29T19:39:34;0.72;81.16
77218;DHT22;66214;51.302;17.068;2023-01-29T19:42:02;0.72;81.30
77218;DHT22;66214;51.302;17.068;2023-01-29T19:44:30;0.72;81.33
77218;DHT22;66214;51.302;17.068;2023-01-29T19:46:58;0.71;81.31
77218;DHT22;66214;51.302;17.068;2023-01-29T19:49:25;0.70;81.24
77218;DHT22;66214;51.302;17.068;2023-01-29T19:51:53;0.70;81.05
77218;DHT22;66214;51.302;17.068;2023-01-29T19:54:25;0.66;80.97
77218;DHT22;66214;51.302;17.068;2023-01-29T19:56:54;0.62;80.94
77218;DHT22;66214;51.302;17.068;2023-01-29T19:59:23;0.55;80.93
77218;DHT22;66214;51.302;17.068;2023-01-29T20:01:51;0.51;80.90
77218;DHT22;66214;51.302;17.068;2023-01-29T20:04:19;0.48;80.86
77218;DHT22;66214;51.302;17.068;2023-01-29T20:06:47;0.45;80.87
77218;DHT22;66214;51.302;17.068;2023-01-29T20:09:15;0.43;80.93
77218;DHT22;66214;51.302;17.068;2023-01-29T20:11:44;0.41;81.02
77218;DHT22;66214;51.302;17.068;2023-01-29T20:14:11;0.40;81.01
77218;DHT22;66214;51.302;17.068;2023-01-29T20:16:40;0.43;81.23
77218;DHT22;66214;51.302;17.068;2023-01-29T20:19:07;0.46;81.30
77218;DHT22;66214;51.302;17.068;2023-01-29T20:21:35;0.50;81.39
77218;DHT22;66214;51.302;17.068;2023-01-29T20:24:05;0.56;81.35
77218;DHT22;66214;51.302;17.068;2023-01-29T20:26:37;0.62;81.49
77218;DHT22;66214;51.302;17.068;2023-01-29T20:29:05;0.66;81.27
77218;DHT22;66214;51.302;17.068;2023-01-29T20:31:33;0.69;81.12
77218;DHT22;66214;51.302;17.068;2023-01-29T20:34:01;0.72;80.90
77218;DHT22;66214;51.302;17.068;2023-01-29T20:36:29;0.75;80.79
77218;DHT22;66214;51.302;17.068;2023-01-29T20:38:57;0.76;80.73
77218;DHT22;66214;51.302;17.068;2023-01-29T20:41:25;0.75;80.77
77218;DHT22;66214;51.302;17.068;2023-01-29T20:43:53;0.74;80.71
77218;DHT22;66214;51.302;17.068;2023-01-29T20:46:21;0.75;80.68
77218;DHT22;66214;51.302;17.068;2023-01-29T20:52:23;0.74;81.06
77218;DHT22;66214;51.302;17.068;2023-01-29T20:54:51;0.76;81.17
77218;DHT22;66214;51.302;17.068;2023-01-29T20:57:19;0.75;81.06
77218;DHT22;66214;51.302;17.068;2023-01-29T20:59:47;0.74;81.08
77218;DHT22;66214;51.302;17.068;2023-01-29T21:02:15;0.69;81.08
77218;DHT22;66214;51.302;17.068;2023-01-29T21:04:43;0.65;80.98
77218;DHT22;66214;51.302;17.068;2023-01-29T21:07:11;0.58;80.90
77218;DHT22;66214;51.302;17.068;2023-01-29T21:09:39;0.52;80.77
77218;DHT22;66214;51.302;17.068;2023-01-29T21:12:07;0.44;80.87
77218;DHT22;66214;51.302;17.068;2023-01-29T21:14:35;0.37;81.01
77218;DHT22;66214;51.302;17.068;2023-01-29T21:17:03;0.26;81.61
77218;DHT22;66214;51.302;17.068;2023-01-29T21:19:31;0.16;82.19
77218;DHT22;66214;51.302;17.068;2023-01-29T21:21:59;0.05;82.32
77218;DHT22;66214;51.302;17.068;2023-01-29T21:24:27;-0.07;82.83
77218;DHT22;66214;51.302;17.068;2023-01-29T21:26:55;-0.17;83.28
77218;DHT22;66214;51.302;17.068;2023-01-29T21:29:23;-0.23;83.42
77218;DHT22;66214;51.302;17.068;2023-01-29T21:31:51;-0.28;83.44
77218;DHT22;66214;51.302;17.068;2023-01-29T21:34:19;-0.33;83.50
77218;DHT22;66214;51.302;17.068;2023-01-29T21:36:46;-0.33;83.34
77218;DHT22;66214;51.302;17.068;2023-01-29T21:39:14;-0.34;83.18
77218;DHT22;66214;51.302;17.068;2023-01-29T21:41:48;-0.36;83.08
77218;DHT22;66214;51.302;17.068;2023-01-29T21:44:36;-0.39;82.95
77218;DHT22;66214;51.302;17.068;2023-01-29T21:47:04;-0.44;82.91
77218;DHT22;66214;51.302;17.068;2023-01-29T21:49:42;-0.50;82.78
77218;DHT22;66214;51.302;17.068;2023-01-29T21:52:11;-0.56;82.88
77218;DHT22;66214;51.302;17.068;2023-01-29T21:54:41;-0.64;83.10
77218;DHT22;66214;51.302;17.068;2023-01-29T21:57:14;-0.68;82.98
77218;DHT22;66214;51.302;17.068;2023-01-29T21:59:42;-0.72;83.28
77218;DHT22;66214;51.302;17.068;2023-01-29T22:02:12;-0.74;83.39
77218;DHT22;66214;51.302;17.068;2023-01-29T22:04:41;-0.74;83.41
77218;DHT22;66214;51.302;17.068;2023-01-29T22:07:09;-0.74;83.47
77218;DHT22;66214;51.302;17.068;2023-01-29T22:09:38;-0.72;83.44
77218;DHT22;66214;51.302;17.068;2023-01-29T22:12:06;-0.71;83.46
77218;DHT22;66214;51.302;17.068;2023-01-29T22:14:35;-0.70;83.48
77218;DHT22;66214;51.302;17.068;2023-01-29T22:17:03;-0.70;83.49
77218;DHT22;66214;51.302;17.068;2023-01-29T22:19:31;-0.69;83.47
77218;DHT22;66214;51.302;17.068;2023-01-29T22:21:59;-0.67;83.41
77218;DHT22;66214;51.302;17.068;2023-01-29T22:24:27;-0.64;83.26
77218;DHT22;66214;51.302;17.068;2023-01-29T22:26:55;-0.62;83.17
77218;DHT22;66214;51.302;17.068;2023-01-29T22:29:23;-0.60;83.00
77218;DHT22;66214;51.302;17.068;2023-01-29T22:31:51;-0.59;82.91
77218;DHT22;66214;51.302;17.068;2023-01-29T22:34:19;-0.56;82.85
77218;DHT22;66214;51.302;17.068;2023-01-29T22:36:47;-0.51;82.71
77218;DHT22;66214;51.302;17.068;2023-01-29T22:39:15;-0.48;82.57
77218;DHT22;66214;51.302;17.068;2023-01-29T22:41:43;-0.45;82.33
77218;DHT22;66214;51.302;17.068;2023-01-29T22:44:11;-0.41;82.17
77218;DHT22;66214;51.302;17.068;2023-01-29T22:46:39;-0.39;81.91
77218;DHT22;66214;51.302;17.068;2023-01-29T22:49:07;-0.38;81.87
77218;DHT22;66214;51.302;17.068;2023-01-29T22:51:35;-0.39;81.74
77218;DHT22;66214;51.302;17.068;2023-01-29T22:54:03;-0.40;81.46
77218;DHT22;66214;51.302;17.068;2023-01-29T22:56:31;-0.40;81.31
77218;DHT22;66214;51.302;17.068;2023-01-29T22:58:59;-0.41;81.27
77218;DHT22;66214;51.302;17.068;2023-01-29T23:01:29;-0.41;81.20
77218;DHT22;66214;51.302;17.068;2023-01-29T23:03:58;-0.41;81.18
77218;DHT22;66214;51.302;17.068;2023-01-29T23:06:26;-0.36;81.34
77218;DHT22;66214;51.302;17.068;2023-01-29T23:12:28;-0.30;81.34
77218;DHT22;66214;51.302;17.068;2023-01-29T23:14:55;-0.28;80.94
77218;DHT22;66214;51.302;17.068;2023-01-29T23:17:23;-0.24;81.11
77218;DHT22;66214;51.302;17.068;2023-01-29T23:19:51;-0.26;80.95
77218;DHT22;66214;51.302;17.068;2023-01-29T23:22:19;-0.28;80.95
77218;DHT22;66214;51.302;17.068;2023-01-29T23:24:47;-0.31;80.96
77218;DHT22;66214;51.302;17.068;2023-01-29T23:27:15;-0.31;81.04
77218;DHT22;66214;51.302;17.068;2023-01-29T23:29:44;-0.29;80.99
77218;DHT22;66214;51.302;17.068;2023-01-29T23:32:17;-0.31;81.08
77218;DHT22;66214;51.302;17.068;2023-01-29T23:34:48;-0.32;81.10
77218;DHT22;66214;51.302;17.068;2023-01-29T23:37:16;-0.31;81.05
77218;DHT22;66214;51.302;17.068;2023-01-29T23:39:44;-0.31;81.12
77218;DHT22;66214;51.302;17.068;2023-01-29T23:42:12;-0.27;81.11
77218;DHT22;66214;51.302;17.068;2023-01-29T23:44:40;-0.25;80.96
77218;DHT22;66214;51.302;17.068;2023-01-29T23:47:08;-0.24;80.82
77218;DHT22;66214;51.302;17.068;2023-01-29T23:49:36;-0.23;80.77
77218;DHT22;66214;51.302;17.068;2023-01-29T23:52:04;-0.21;80.73
77218;DHT22;66214;51.302;17.068;2023-01-29T23:54:32;-0.20;80.66
77218;DHT22;66214;51.302;17.068;2023-01-29T23:57:00;-0.21;80.51
77218;DHT22;66214;51.302;17.068;2023-01-29T23:59:28;-0.23;80.46
